Time;durP1;ratioP1;P1;durP2;ratioP2;P2;SDS_P1;SDS_P2;PMS_P1;PMS_P2;Temp;Humidity;BMP_temperature;BMP_pressure;BME280_temperature;BME280_humidity;BME280_pressure;Samples;Min_cycle;Max_cycle;Signal;HPM_P1;HPM_P2
2023/03/14 00:00:32;;;;;;;11.80;8.30;;;;;;;10.12;57.96;98609.98;112354;1245;23684;-78
2023/03/14 00:03:20;;;;;;;12.90;7.80;;;;;;;10.07;57.97;98603.88;112511;1239;22431;-76
2023/03/14 00:05:52;;;;;;;14.80;9.00;;;;;;;10.05;58.00;98602.27;112964;1233;21925;-77
2023/03/14 00:08:21;;;;;;;20.20;8.70;;;;;;;10.04;57.90;98605.44;113241;1233;22162;-75
2023/03/14 00:10:50;;;;;;;13.40;8.40;;;;;;;10.05;57.77;98604.34;113589;1233;22217;-77
2023/03/14 00:13:24;;;;;;;15.60;7.70;;;;;;;10.04;57.72;98592.39;113600;1233;21944;-78
2023/03/14 00:15:53;;;;;;;12.40;7.70;;;;;;;10.02;57.80;98591.10;113401;1233;21968;-75
2023/03/14 00:18:26;;;;;;;10.70;7.50;;;;;;;10.02;57.86;98593.07;113726;1233;23673;-75
2023/03/14 00:20:59;;;;;;;12.90;7.20;;;;;;;10.01;57.84;98589.96;113326;1233;23010;-76
2023/03/14 00:23:36;;;;;;;15.70;7.90;;;;;;;10.00;57.81;98586.55;113568;1233;22004;-77
2023/03/14 00:26:13;;;;;;;11.20;8.20;;;;;;;10.01;57.82;98593.66;113634;1233;21940;-76
2023/03/14 00:28:45;;;;;;;11.90;8.40;;;;;;;9.99;57.69;98594.62;113358;1233;21935;-76
2023/03/14 00:31:15;;;;;;;11.20;7.50;;;;;;;10.00;57.64;98596.30;113434;1233;22043;-78
2023/03/14 00:33:45;;;;;;;10.40;7.40;;;;;;;10.02;57.68;98596.02;113641;1233;21987;-77
2023/03/14 00:36:17;;;;;;;12.90;7.70;;;;;;;10.03;57.61;98597.87;113541;1233;24332;-77
2023/03/14 00:38:50;;;;;;;8.60;6.70;;;;;;;10.04;57.50;98603.17;113633;1227;23082;-77
2023/03/14 00:41:24;;;;;;;10.60;6.70;;;;;;;10.05;57.36;98601.70;113383;1233;21946;-77
2023/03/14 00:44:00;;;;;;;9.80;6.90;;;;;;;10.06;57.31;98600.95;113529;1233;21924;-77
2023/03/14 00:46:32;;;;;;;12.00;7.80;;;;;;;10.08;57.27;98602.77;113550;1233;21951;-76
2023/03/14 00:49:14;;;;;;;8.00;6.60;;;;;;;10.08;57.13;98594.73;113556;1233;21974;-76
2023/03/14 00:51:44;;;;;;;8.40;6.40;;;;;;;10.06;57.19;98590.00;113561;1233;21971;-76
2023/03/14 00:54:14;;;;;;;9.40;6.30;;;;;;;10.06;57.24;98587.78;113357;1232;22000;-78
2023/03/14 00:56:48;;;;;;;9.40;7.60;;;;;;;10.03;57.11;98584.85;113617;1233;22919;-78
2023/03/14 00:59:17;;;;;;;14.00;7.70;;;;;;;10.00;57.13;98582.07;113574;1233;21947;-76
2023/03/14 01:01:45;;;;;;;14.00;9.40;;;;;;;9.95;57.09;98574.87;113596;1229;22999;-76
2023/03/14 01:04:16;;;;;;;21.50;10.20;;;;;;;9.93;57.18;98564.98;113615;1233;21939;-76
2023/03/14 01:06:45;;;;;;;14.00;10.60;;;;;;;9.83;57.15;98565.20;113631;1233;23685;-75
2023/03/14 01:09:14;;;;;;;17.40;12.20;;;;;;;9.72;57.38;98563.65;113670;1233;22083;-76
2023/03/14 01:11:46;;;;;;;17.60;12.40;;;;;;;9.61;57.78;98558.44;113598;1232;22046;-76
2023/03/14 01:14:14;;;;;;;13.80;10.00;;;;;;;9.54;58.10;98552.62;113601;1233;22423;-77
2023/03/14 01:16:43;;;;;;;15.70;9.90;;;;;;;9.50;58.36;98554.23;113604;1229;23018;-76
2023/03/14 01:19:15;;;;;;;12.10;9.40;;;;;;;9.50;58.62;98551.83;113245;1233;21942;-76
2023/03/14 01:21:43;;;;;;;11.10;8.30;;;;;;;9.51;58.69;98546.40;113571;1233;23041;-77
2023/03/14 01:24:12;;;;;;;13.80;9.00;;;;;;;9.53;58.56;98546.25;113492;1233;23574;-76
2023/03/14 01:26:41;;;;;;;11.20;8.50;;;;;;;9.57;58.61;98549.63;113748;1233;23006;-76
2023/03/14 01:29:10;;;;;;;12.30;7.30;;;;;;;9.62;58.55;98550.20;113149;1239;23027;-77
2023/03/14 01:31:40;;;;;;;14.70;8.30;;;;;;;9.67;58.52;98549.59;113218;1239;22092;-76
2023/03/14 01:34:11;;;;;;;13.10;7.30;;;;;;;9.71;58.41;98559.73;112815;1239;21969;-75
2023/03/14 01:36:40;;;;;;;15.70;8.80;;;;;;;9.76;58.38;98568.13;113153;1239;24353;-76
2023/03/14 01:39:14;;;;;;;12.50;8.90;;;;;;;9.79;58.25;98570.69;112886;1239;21964;-76
2023/03/14 01:41:44;;;;;;;15.60;8.80;;;;;;;9.82;58.16;98560.79;112499;1239;22894;-76
2023/03/14 01:44:15;;;;;;;11.70;8.10;;;;;;;9.84;57.98;98558.91;112884;1239;21914;-76
2023/03/14 01:46:48;;;;;;;10.40;7.20;;;;;;;9.86;57.86;98561.42;112995;1233;22998;-78
2023/03/14 01:49:25;;;;;;;9.90;7.70;;;;;;;9.88;57.71;98561.92;113694;1233;21946;-75
2023/03/14 01:52:20;;;;;;;9.50;7.40;;;;;;;9.89;57.55;98569.92;112954;1241;22162;-77
2023/03/14 01:55:15;;;;;;;11.50;8.10;;;;;;;9.89;57.66;98586.75;112703;1241;22829;-75
2023/03/14 01:57:49;;;;;;;12.60;8.70;;;;;;;9.92;57.68;98597.46;112597;1241;21954;-75
2023/03/14 02:00:23;;;;;;;16.40;10.70;;;;;;;9.96;57.68;98593.43;112457;1241;22416;-76
2023/03/14 02:03:15;;;;;;;13.30;10.30;;;;;;;10.00;57.64;98586.58;112405;1241;23686;-75
2023/03/14 02:05:46;;;;;;;12.40;9.40;;;;;;;10.03;57.52;98583.10;112645;1241;22086;-76
2023/03/14 02:08:22;;;;;;;15.00;9.30;;;;;;;10.02;57.67;98578.08;112520;1232;21954;-75
2023/03/14 02:10:59;;;;;;;11.20;8.70;;;;;;;10.02;57.62;98567.67;112644;1241;21966;-76
2023/03/14 02:13:48;;;;;;;11.90;8.20;;;;;;;10.00;57.58;98548.89;112867;1241;23420;-76
2023/03/14 02:16:35;;;;;;;10.30;8.30;;;;;;;9.98;57.77;98536.10;112104;1245;21954;-74
2023/03/14 02:19:08;;;;;;;10.60;7.80;;;;;;;10.00;57.73;98526.78;112385;1245;22130;-75
2023/03/14 02:22:08;;;;;;;11.20;7.40;;;;;;;10.00;57.81;98518.98;112121;1237;22003;-76
2023/03/14 02:24:53;;;;;;;12.90;7.80;;;;;;;10.00;57.87;98509.06;112334;1245;22942;-76
2023/03/14 02:27:26;;;;;;;14.70;8.60;;;;;;;10.00;58.01;98504.90;112167;1245;22705;-77
2023/03/14 02:30:10;;;;;;;13.60;7.40;;;;;;;10.02;58.08;98500.27;112582;1239;22014;-75
2023/03/14 02:32:46;;;;;;;10.90;7.70;;;;;;;10.03;58.06;98493.07;113034;1239;22230;-75
2023/03/14 02:35:29;;;;;;;10.60;6.60;;;;;;;10.02;58.11;98494.51;113480;1233;21910;-76
2023/03/14 02:38:17;;;;;;;16.40;8.60;;;;;;;10.01;58.14;98478.94;113456;1232;21955;-77
2023/03/14 02:40:47;;;;;;;12.60;8.00;;;;;;;9.99;58.24;98462.17;113447;1233;21938;-76
2023/03/14 02:43:17;;;;;;;10.90;8.10;;;;;;;9.95;58.23;98454.83;113504;1232;23568;-77
2023/03/14 02:45:56;;;;;;;12.00;9.70;;;;;;;9.90;58.25;98454.65;113387;1233;22999;-76
2023/03/14 02:48:25;;;;;;;20.40;16.40;;;;;;;9.86;58.45;98444.83;113581;1233;22402;-76
2023/03/14 02:50:59;;;;;;;19.30;14.30;;;;;;;9.84;58.58;98428.62;113624;1233;21947;-76
2023/03/14 02:53:34;;;;;;;15.20;10.70;;;;;;;9.82;58.68;98412.96;113544;1231;21938;-76
2023/03/14 02:56:09;;;;;;;12.40;8.50;;;;;;;9.77;58.77;98376.97;112827;1239;22845;-77
2023/03/14 02:58:38;;;;;;;11.70;7.20;;;;;;;9.71;58.90;98344.34;113003;1239;22894;-76
2023/03/14 03:01:33;;;;;;;10.10;6.00;;;;;;;9.61;59.17;98368.79;112649;1239;23619;-77
2023/03/14 03:04:02;;;;;;;10.70;6.70;;;;;;;9.58;59.38;98414.12;109494;1239;4302235;-76
2023/03/14 03:06:32;;;;;;;9.90;7.10;;;;;;;9.59;59.40;98431.79;112817;1238;22027;-76
2023/03/14 03:09:01;;;;;;;11.20;7.50;;;;;;;9.64;59.48;98423.35;112985;1239;23256;-76
2023/03/14 03:11:31;;;;;;;8.80;6.20;;;;;;;9.69;59.55;98407.05;112495;1239;23702;-75
2023/03/14 03:14:00;;;;;;;8.00;6.20;;;;;;;9.72;59.51;98400.40;113112;1233;21938;-77
2023/03/14 03:16:29;;;;;;;10.90;6.10;;;;;;;9.73;59.44;98416.12;113394;1233;23022;-77
2023/03/14 03:19:01;;;;;;;;;;;;;;;9.74;59.49;98429.61;113534;1233;22956;-77
2023/03/14 03:21:30;;;;;;;9.90;5.80;;;;;;;9.66;59.58;98430.80;113487;1233;24286;-76
2023/03/14 03:24:01;;;;;;;7.10;5.50;;;;;;;9.66;59.53;98438.29;113463;1233;21948;-76
2023/03/14 03:26:29;;;;;;;8.80;6.60;;;;;;;9.68;59.40;98442.17;113493;1233;21966;-77
2023/03/14 03:28:58;;;;;;;11.80;7.50;;;;;;;9.65;59.17;98431.05;113257;1233;21947;-75
2023/03/14 03:31:28;;;;;;;10.60;6.30;;;;;;;9.65;59.18;98404.30;113348;1233;21957;-76
2023/03/14 03:34:00;;;;;;;9.10;6.00;;;;;;;9.66;59.22;98392.81;113524;1233;21951;-74
2023/03/14 03:36:32;;;;;;;8.90;6.30;;;;;;;9.66;59.27;98395.23;113579;1232;21920;-76
2023/03/14 03:39:00;;;;;;;8.00;5.60;;;;;;;9.67;59.21;98406.13;113524;1232;21969;-75
2023/03/14 03:41:32;;;;;;;9.30;6.60;;;;;;;9.67;59.18;98407.45;113369;1233;23092;-76
2023/03/14 03:44:05;;;;;;;8.90;6.00;;;;;;;9.68;59.08;98406.70;113506;1233;21967;-76
2023/03/14 03:46:37;;;;;;;10.60;6.90;;;;;;;9.67;59.00;98399.14;113565;1233;21938;-77
2023/03/14 03:49:06;;;;;;;13.80;7.20;;;;;;;9.66;58.96;98388.11;113308;1232;21978;-76
2023/03/14 03:51:35;;;;;;;9.50;6.90;;;;;;;9.64;58.87;98390.64;113502;1232;21919;-76
2023/03/14 03:54:06;;;;;;;7.90;6.20;;;;;;;9.64;58.81;98395.54;113325;1232;21970;-76
2023/03/14 03:56:35;;;;;;;10.80;7.00;;;;;;;9.64;58.89;98396.42;113576;1232;21937;-77
2023/03/14 03:59:03;;;;;;;12.90;7.20;;;;;;;9.61;58.79;98394.68;112844;1240;21974;-76
2023/03/14 04:01:32;;;;;;;8.60;6.30;;;;;;;9.59;58.84;98398.30;112870;1240;21972;-75
2023/03/14 04:04:03;;;;;;;12.30;6.60;;;;;;;9.54;58.87;98380.49;112848;1239;22419;-77
2023/03/14 04:06:33;;;;;;;10.40;7.40;;;;;;;9.53;58.91;98368.64;113010;1239;22048;-76
2023/03/14 04:09:04;;;;;;;11.60;7.20;;;;;;;9.49;58.95;98355.14;112488;1240;24289;-76
2023/03/14 04:11:45;;;;;;;12.80;7.10;;;;;;;9.47;58.85;98343.88;112646;1240;21999;-77
2023/03/14 04:14:23;;;;;;;8.80;6.10;;;;;;;9.43;58.90;98330.04;112860;1240;23682;-77
2023/03/14 04:17:17;;;;;;;;;;;;;;;9.41;58.85;98327.23;112597;1239;24327;-76
2023/03/14 04:19:53;;;;;;;11.80;7.70;;;;;;;9.34;59.07;98323.85;112877;1240;21958;-76
2023/03/14 04:22:29;;;;;;;12.00;7.30;;;;;;;9.33;59.05;98315.56;112309;1244;21964;-76
2023/03/14 04:25:03;;;;;;;11.80;7.40;;;;;;;9.34;59.08;98316.75;112808;1239;21983;-76
2023/03/14 04:27:35;;;;;;;9.40;6.80;;;;;;;9.33;59.04;98310.73;113159;1239;21974;-76
2023/03/14 04:30:07;;;;;;;14.10;8.20;;;;;;;9.33;59.13;98309.64;112613;1232;23021;-76
2023/03/14 04:32:53;;;;;;;9.60;7.00;;;;;;;9.31;59.10;98312.55;112592;1239;22962;-78
2023/03/14 04:35:26;;;;;;;13.30;8.90;;;;;;;9.29;59.13;98298.50;112624;1238;22076;-77
2023/03/14 04:37:59;;;;;;;;;;;;;;;9.27;59.15;98300.36;113092;1239;22849;-76
2023/03/14 04:40:40;;;;;;;17.50;11.00;;;;;;;9.17;59.42;98294.41;113228;1233;23671;-77
2023/03/14 04:43:11;;;;;;;18.20;11.90;;;;;;;9.16;59.35;98290.68;113491;1233;21965;-76
2023/03/14 04:45:53;;;;;;;62.00;36.10;;;;;;;9.16;59.26;98295.85;113428;1233;22312;-76
2023/03/14 04:48:22;;;;;;;43.00;27.40;;;;;;;9.20;59.26;98302.23;113455;1233;21928;-76
2023/03/14 04:50:52;;;;;;;24.00;16.50;;;;;;;9.23;59.21;98319.51;113528;1233;21963;-77
2023/03/14 04:53:23;;;;;;;33.70;27.50;;;;;;;9.26;59.19;98324.74;113568;1233;23578;-75
2023/03/14 04:55:56;;;;;;;31.00;26.80;;;;;;;9.26;59.18;98322.95;113522;1233;21945;-76
2023/03/14 04:58:26;;;;;;;18.60;16.30;;;;;;;9.28;59.29;98326.35;113324;1233;21941;-77
2023/03/14 05:01:07;;;;;;;24.70;18.10;;;;;;;9.22;59.26;98322.23;113572;1233;22043;-76
2023/03/14 05:03:54;;;;;;;22.00;16.10;;;;;;;9.18;59.45;98316.58;113544;1233;23015;-76
2023/03/14 05:06:43;;;;;;;28.50;24.70;;;;;;;9.15;59.47;98316.02;113524;1233;21950;-77
2023/03/14 05:09:26;;;;;;;23.20;20.80;;;;;;;9.12;59.47;98308.63;113314;1233;21950;-77
2023/03/14 05:12:23;;;;;;;22.10;17.30;;;;;;;9.06;59.62;98303.61;113593;1233;22872;-77
2023/03/14 05:14:59;;;;;;;16.20;13.70;;;;;;;9.03;59.68;98305.54;113637;1234;22801;-76
2023/03/14 05:18:03;;;;;;;17.30;12.40;;;;;;;9.01;59.86;98301.31;113468;1233;23717;-76
2023/03/14 05:20:55;;;;;;;32.10;20.30;;;;;;;8.99;59.89;98298.33;113552;1233;21949;-79
2023/03/14 05:23:40;;;;;;;26.10;22.50;;;;;;;9.01;59.97;98289.53;113580;1233;21938;-77
2023/03/14 05:26:27;;;;;;;74.60;56.80;;;;;;;9.03;59.94;98281.75;113482;1233;21958;-78
2023/03/14 05:29:04;;;;;;;31.60;27.60;;;;;;;9.06;59.90;98276.17;112840;1239;23611;-78
2023/03/14 05:31:44;;;;;;;32.40;29.00;;;;;;;9.09;59.80;98282.78;112831;1239;22012;-78
2023/03/14 05:34:37;;;;;;;31.90;28.60;;;;;;;9.10;60.03;98284.08;113076;1238;22018;-76
2023/03/14 05:37:31;;;;;;;23.30;20.90;;;;;;;9.12;60.04;98284.66;112096;1245;23935;-77
2023/03/14 05:40:17;;;;;;;18.40;15.80;;;;;;;9.15;59.77;98288.45;112124;1245;21970;-78
2023/03/14 05:43:00;;;;;;;20.20;18.20;;;;;;;9.17;59.80;98287.98;112392;1245;21986;-77
2023/03/14 05:45:53;;;;;;;22.70;20.50;;;;;;;9.19;59.82;98286.30;111604;1249;21961;-78
2023/03/14 05:48:43;;;;;;;21.60;19.40;;;;;;;9.19;59.89;98289.05;112016;1246;23591;-78
2023/03/14 05:51:27;;;;;;;22.60;20.10;;;;;;;9.19;59.82;98281.59;112096;1246;21976;-79
2023/03/14 05:54:12;;;;;;;25.20;21.20;;;;;;;9.20;59.85;98279.98;111759;1246;22125;-80
2023/03/14 05:57:06;;;;;;;19.80;17.80;;;;;;;9.22;59.75;98284.55;112020;1246;22327;-77
2023/03/14 05:59:59;;;;;;;23.10;19.60;;;;;;;9.22;59.83;98288.71;111967;1246;21966;-80
2023/03/14 06:02:57;;;;;;;23.60;21.20;;;;;;;9.25;59.80;98282.58;112456;1233;21949;-78
2023/03/14 06:05:28;;;;;;;23.70;20.90;;;;;;;9.31;59.68;98278.20;113195;1233;21973;-78
2023/03/14 06:08:09;;;;;;;24.70;22.10;;;;;;;9.38;59.73;98286.64;113349;1233;21984;-77
2023/03/14 06:10:41;;;;;;;24.80;22.30;;;;;;;9.46;59.70;98285.23;113495;1233;21986;-77
2023/03/14 06:13:19;;;;;;;25.10;19.60;;;;;;;9.54;59.59;98277.04;113397;1233;21964;-77
2023/03/14 06:15:50;;;;;;;23.00;20.00;;;;;;;9.62;59.55;98271.52;113569;1228;21945;-79
2023/03/14 06:18:19;;;;;;;28.50;19.20;;;;;;;9.72;59.52;98268.58;113377;1232;23031;-77
2023/03/14 06:20:49;;;;;;;26.70;19.20;;;;;;;9.83;59.41;98272.70;113354;1233;21955;-77
2023/03/14 06:23:26;;;;;;;20.40;16.10;;;;;;;9.92;58.93;98267.56;113507;1233;21959;-79
2023/03/14 06:26:09;;;;;;;20.40;14.60;;;;;;;10.00;58.88;98274.48;114209;1232;21955;-78
2023/03/14 06:28:42;;;;;;;15.80;12.70;;;;;;;10.13;58.85;98282.46;113202;1232;23095;-79
2023/03/14 06:31:14;;;;;;;14.10;10.70;;;;;;;10.27;58.59;98283.06;112770;1231;23468;-78
2023/03/14 06:33:51;;;;;;;11.40;8.60;;;;;;;10.37;58.14;98289.86;112387;1242;23027;-77
2023/03/14 06:36:22;;;;;;;14.40;9.10;;;;;;;10.46;57.75;98305.05;112529;1242;22126;-79
2023/03/14 06:38:57;;;;;;;10.90;7.70;;;;;;;10.58;57.85;98315.02;111718;1248;21965;-76
2023/03/14 06:41:32;;;;;;;13.00;8.30;;;;;;;10.72;57.48;98311.25;111793;1249;21994;-78
2023/03/14 06:44:01;;;;;;;13.90;9.70;;;;;;;10.82;57.11;98311.44;111718;1249;21974;-79
2023/03/14 06:46:41;;;;;;;13.40;9.20;;;;;;;10.92;56.82;98310.67;111978;1248;21994;-79
2023/03/14 06:49:13;;;;;;;11.10;7.80;;;;;;;11.01;56.70;98322.92;111727;1244;21950;-79
2023/03/14 06:51:53;;;;;;;12.10;8.20;;;;;;;11.12;56.60;98310.67;111797;1239;22453;-78
2023/03/14 06:54:25;;;;;;;22.90;13.70;;;;;;;11.20;56.27;98298.94;112004;1247;21945;-78
2023/03/14 06:56:56;;;;;;;20.20;14.10;;;;;;;11.25;55.88;98295.59;111857;1246;22009;-78
2023/03/14 06:59:29;;;;;;;14.60;10.30;;;;;;;11.25;55.84;98296.45;111447;1251;21963;-77
2023/03/14 07:02:01;;;;;;;14.20;10.10;;;;;;;11.28;55.64;98291.88;111537;1251;22340;-77
2023/03/14 07:04:35;;;;;;;19.30;10.40;;;;;;;11.29;55.60;98292.71;111384;1251;24616;-78
2023/03/14 07:07:05;;;;;;;11.40;8.20;;;;;;;11.30;55.56;98296.59;111386;1251;23596;-79
2023/03/14 07:09:35;;;;;;;13.80;9.90;;;;;;;11.40;55.73;98308.41;111720;1244;21998;-78
2023/03/14 07:12:08;;;;;;;19.60;11.30;;;;;;;11.54;55.57;98317.19;111763;1247;21974;-79
2023/03/14 07:15:17;;;;;;;14.50;10.20;;;;;;;11.71;55.52;98315.54;111462;1249;22712;-77
2023/03/14 07:18:21;;;;;;;20.90;10.20;;;;;;;11.86;55.48;98314.46;111581;1248;21995;-80
2023/03/14 07:21:03;;;;;;;16.70;9.60;;;;;;;12.08;55.48;98326.03;111549;1251;21987;-76
2023/03/14 07:23:57;;;;;;;16.20;9.70;;;;;;;12.46;56.10;98326.29;111507;1247;21964;-80
2023/03/14 07:27:08;;;;;;;15.50;9.20;;;;;;;13.23;56.24;98325.44;111628;1254;21989;-78
2023/03/14 07:29:39;;;;;;;12.30;9.10;;;;;;;13.91;54.71;98329.13;111243;1250;21968;-73
2023/03/14 07:32:19;;;;;;;13.90;8.70;;;;;;;14.48;53.44;98331.30;111174;1252;22056;-73
2023/03/14 07:34:53;;;;;;;8.00;6.30;;;;;;;14.89;51.61;98323.04;111414;1251;23759;-74
2023/03/14 07:37:26;;;;;;;9.30;6.10;;;;;;;14.93;49.29;98315.19;111306;1251;21975;-74
2023/03/14 07:40:14;;;;;;;9.00;6.70;;;;;;;14.82;49.04;98314.29;111390;1251;22107;-74
2023/03/14 07:42:54;;;;;;;11.40;6.70;;;;;;;14.77;49.15;98316.98;111400;1251;21991;-75
2023/03/14 07:45:28;;;;;;;12.70;6.40;;;;;;;14.73;48.86;98319.75;112363;1238;21965;-76
2023/03/14 07:48:03;;;;;;;10.80;7.30;;;;;;;14.70;48.77;98323.64;112453;1243;23068;-75
2023/03/14 07:50:31;;;;;;;12.00;7.30;;;;;;;14.65;48.64;98331.86;112496;1239;23080;-76
2023/03/14 07:53:02;;;;;;;12.60;9.20;;;;;;;14.55;48.79;98332.63;112804;1239;22099;-75
2023/03/14 07:55:53;;;;;;;10.80;7.40;;;;;;;14.45;48.57;98321.92;112863;1239;21954;-74
2023/03/14 07:58:25;;;;;;;13.60;9.30;;;;;;;14.35;48.55;98313.20;113093;1239;22963;-74
2023/03/14 08:00:59;;;;;;;11.20;8.20;;;;;;;14.16;48.52;98308.00;113042;1239;21963;-74
2023/03/14 08:03:30;;;;;;;7.80;5.80;;;;;;;13.99;48.56;98310.84;112798;1243;22077;-75
2023/03/14 08:06:09;;;;;;;10.20;6.50;;;;;;;13.86;48.97;98313.31;112594;1240;23631;-74
2023/03/14 08:08:44;;;;;;;11.70;8.00;;;;;;;13.85;49.10;98315.67;112710;1241;21955;-77
2023/03/14 08:11:15;;;;;;;16.70;9.70;;;;;;;13.86;48.98;98319.77;112821;1241;21964;-74
2023/03/14 08:13:52;;;;;;;15.60;10.50;;;;;;;13.84;48.96;98323.10;112737;1240;22708;-72
2023/03/14 08:16:29;;;;;;;12.00;7.80;;;;;;;13.87;49.35;98326.30;112766;1240;21938;-74
2023/03/14 08:19:04;;;;;;;14.20;8.80;;;;;;;14.00;49.39;98330.13;112512;1239;22215;-74
2023/03/14 08:21:35;;;;;;;13.60;8.20;;;;;;;14.12;49.07;98324.94;113042;1233;21970;-75
2023/03/14 08:24:22;;;;;;;;;;;;;;;;;;;;;
2023/03/14 08:27:11;;;;;;;9.70;7.10;;;;;;;14.02;48.53;98295.87;113543;1232;23491;-74
2023/03/14 08:29:45;;;;;;;14.10;10.30;;;;;;;13.88;48.49;98284.95;113259;1232;23571;-75
2023/03/14 08:32:16;;;;;;;16.30;12.50;;;;;;;13.79;48.48;98285.56;113360;1232;23671;-74
2023/03/14 08:34:46;;;;;;;13.90;10.70;;;;;;;13.69;48.62;98287.48;113366;1232;22826;-75
2023/03/14 08:37:35;;;;;;;13.70;9.60;;;;;;;13.54;49.01;98280.80;113403;1233;21938;-74
2023/03/14 08:40:30;;;;;;;12.20;8.30;;;;;;;13.44;49.33;98281.80;113389;1233;22685;-74
2023/03/14 08:43:34;;;;;;;10.30;6.70;;;;;;;13.34;49.57;98288.43;112922;1239;23056;-75
2023/03/14 08:46:32;;;;;;;15.30;8.10;;;;;;;13.28;49.69;98290.30;112847;1239;21978;-73
2023/03/14 08:49:16;;;;;;;11.60;8.00;;;;;;;13.20;49.96;98285.85;112245;1244;23681;-78
2023/03/14 08:51:56;;;;;;;16.30;9.40;;;;;;;13.25;50.19;98290.67;112123;1244;21989;-78
2023/03/14 08:54:30;;;;;;;10.20;8.10;;;;;;;13.28;50.18;98293.05;112139;1244;21979;-77
2023/03/14 08:57:16;;;;;;;13.10;9.40;;;;;;;13.26;50.17;98301.59;112080;1244;21954;-78
2023/03/14 08:59:52;;;;;;;18.90;9.80;;;;;;;13.25;50.23;98311.42;112049;1244;21967;-77
2023/03/14 09:02:30;;;;;;;15.70;10.20;;;;;;;13.19;50.29;98317.16;112905;1238;21953;-77
2023/03/14 09:05:05;;;;;;;15.90;9.50;;;;;;;13.17;50.58;98328.89;113064;1238;21936;-77
2023/03/14 09:07:34;;;;;;;12.80;9.40;;;;;;;13.16;50.79;98332.30;112967;1234;21978;-75
2023/03/14 09:10:03;;;;;;;13.70;9.20;;;;;;;13.15;50.97;98330.09;113517;1233;21938;-77
2023/03/14 09:12:33;;;;;;;16.30;10.90;;;;;;;13.11;50.96;98335.45;112542;1240;23788;-77
2023/03/14 09:15:03;;;;;;;17.60;12.50;;;;;;;13.09;51.06;98342.10;112921;1240;23771;-76
2023/03/14 09:17:37;;;;;;;23.20;13.50;;;;;;;13.08;51.34;98347.71;112829;1240;21947;-78
2023/03/14 09:20:08;;;;;;;17.50;12.80;;;;;;;13.12;51.40;98348.88;112749;1240;21972;-77
2023/03/14 09:22:40;;;;;;;15.30;12.30;;;;;;;13.13;51.41;98345.28;112071;1246;22005;-75
2023/03/14 09:25:14;;;;;;;13.10;10.70;;;;;;;13.10;51.41;98346.36;111364;1252;23942;-78
2023/03/14 09:27:51;;;;;;;12.70;8.70;;;;;;;13.11;51.64;98342.47;111355;1251;21979;-77
2023/03/14 09:30:25;;;;;;;13.60;9.90;;;;;;;13.07;51.78;98341.70;111197;1251;21964;-77
2023/03/14 09:33:04;;;;;;;15.90;10.50;;;;;;;13.06;52.20;98338.34;110990;1257;23653;-77
2023/03/14 09:35:46;;;;;;;17.50;13.10;;;;;;;13.05;52.37;98340.30;110789;1257;21987;-78
2023/03/14 09:38:21;;;;;;;14.50;11.80;;;;;;;13.03;52.55;98342.70;110886;1258;23073;-79
2023/03/14 09:40:55;;;;;;;15.40;11.70;;;;;;;13.07;52.93;98346.13;110692;1258;22023;-79
2023/03/14 09:43:34;;;;;;;13.20;9.30;;;;;;;13.12;53.09;98351.77;111146;1253;22046;-78
2023/03/14 09:46:10;;;;;;;13.70;8.40;;;;;;;13.08;52.90;98351.96;110789;1258;23906;-76
2023/03/14 09:48:46;;;;;;;10.90;8.40;;;;;;;13.06;53.15;98348.58;111931;1245;22407;-79
2023/03/14 09:51:21;;;;;;;25.70;17.00;;;;;;;13.08;53.34;98341.63;111928;1243;22198;-76
2023/03/14 09:53:51;;;;;;;24.90;17.50;;;;;;;13.08;53.40;98345.48;111523;1250;21986;-77
2023/03/14 09:56:31;;;;;;;15.50;11.60;;;;;;;13.07;53.55;98350.82;111663;1250;24338;-76
2023/03/14 09:59:26;;;;;;;12.90;9.50;;;;;;;13.05;53.90;98344.68;111028;1256;23799;-77
2023/03/14 10:02:01;;;;;;;11.60;9.90;;;;;;;12.98;54.03;98345.95;110772;1259;23766;-76
2023/03/14 10:04:54;;;;;;;13.30;9.10;;;;;;;12.94;54.29;98344.36;110954;1256;21977;-78
2023/03/14 10:07:35;;;;;;;13.60;11.50;;;;;;;12.95;54.78;98346.31;111097;1256;22107;-77
2023/03/14 10:10:19;;;;;;;;;;;;;;;12.95;54.96;98346.89;111391;1252;21981;-77
2023/03/14 10:13:13;;;;;;;20.80;15.30;;;;;;;12.77;55.02;98347.56;112076;1244;23591;-79
2023/03/14 10:15:56;;;;;;;15.50;11.50;;;;;;;12.67;55.19;98345.19;112406;1244;23756;-78
2023/03/14 10:18:50;;;;;;;11.50;7.10;;;;;;;12.67;55.58;98357.83;112547;1239;21967;-76
2023/03/14 10:21:33;;;;;;;12.80;9.40;;;;;;;12.62;55.60;98360.27;113275;1233;21939;-76
2023/03/14 10:24:29;;;;;;;12.80;8.80;;;;;;;12.53;55.65;98356.45;112966;1239;23024;-77
2023/03/14 10:27:22;;;;;;;10.00;7.70;;;;;;;12.43;55.91;98362.64;112644;1240;21958;-76
2023/03/14 10:30:06;;;;;;;10.50;8.30;;;;;;;12.28;56.12;98375.41;112930;1239;22968;-79
2023/03/14 10:32:49;;;;;;;15.20;11.70;;;;;;;12.22;56.42;98379.90;112805;1239;23654;-78
2023/03/14 10:35:47;;;;;;;16.00;10.60;;;;;;;12.18;56.73;98377.95;112808;1239;21960;-77
2023/03/14 10:38:25;;;;;;;13.60;10.40;;;;;;;12.18;57.08;98385.96;112870;1239;22255;-77
2023/03/14 10:41:00;;;;;;;21.90;16.50;;;;;;;12.22;57.38;98385.83;112833;1239;24446;-77
2023/03/14 10:43:35;;;;;;;14.90;11.80;;;;;;;12.29;57.57;98384.93;113568;1232;23005;-77
2023/03/14 10:46:17;;;;;;;12.60;8.50;;;;;;;12.33;57.65;98389.34;113418;1233;21950;-77
2023/03/14 10:49:36;;;;;;;10.50;7.50;;;;;;;12.32;57.70;98391.54;113417;1233;21972;-74
2023/03/14 10:52:27;;;;;;;10.90;7.90;;;;;;;12.40;58.04;98395.84;112629;1239;23660;-75
2023/03/14 10:55:41;;;;;;;9.60;6.50;;;;;;;12.40;57.78;98393.39;112688;1240;23524;-76
2023/03/14 10:58:56;;;;;;;11.90;8.50;;;;;;;12.40;58.07;98390.73;112287;1244;21971;-78
2023/03/14 11:01:55;;;;;;;12.00;9.20;;;;;;;12.39;58.28;98384.55;111700;1249;23685;-75
2023/03/14 11:04:53;;;;;;;;;;;;;;;;;;;;;
2023/03/14 11:08:21;;;;;;;10.40;8.30;;;;;;;12.38;58.50;98374.69;111286;1256;22040;-77
2023/03/14 11:11:37;;;;;;;9.60;7.60;;;;;;;12.38;58.27;98369.77;111116;1254;22248;-77
2023/03/14 11:14:55;;;;;;;10.30;8.00;;;;;;;12.30;58.26;98363.98;111273;1254;21964;-76
2023/03/14 11:18:10;;;;;;;12.40;7.90;;;;;;;12.24;58.64;98357.05;111139;1257;21975;-78
2023/03/14 11:21:13;;;;;;;12.90;8.00;;;;;;;12.24;58.72;98350.30;110864;1253;22751;-75
2023/03/14 11:24:08;;;;;;;9.60;8.00;;;;;;;12.24;58.72;98345.41;110875;1259;22003;-77
2023/03/14 11:27:05;;;;;;;9.60;6.80;;;;;;;12.28;58.88;98342.80;110852;1259;23012;-76
2023/03/14 11:30:00;;;;;;;12.70;8.20;;;;;;;12.36;58.98;98346.42;111138;1254;22050;-76
2023/03/14 11:32:45;;;;;;;10.50;6.90;;;;;;;12.51;58.86;98341.10;111359;1254;21965;-76
2023/03/14 11:35:29;;;;;;;8.70;7.60;;;;;;;12.58;58.50;98337.20;111661;1251;21963;-76
2023/03/14 11:38:19;;;;;;;13.10;8.40;;;;;;;12.65;58.61;98333.16;111776;1244;21968;-76
2023/03/14 11:40:54;;;;;;;11.20;7.30;;;;;;;12.80;58.44;98334.45;112428;1244;23682;-78
2023/03/14 11:43:43;;;;;;;11.10;7.80;;;;;;;12.93;58.39;98337.64;112792;1239;23056;-79
2023/03/14 11:46:46;;;;;;;11.50;7.80;;;;;;;13.03;57.78;98341.33;112802;1239;22748;-77
2023/03/14 11:50:00;;;;;;;12.90;8.30;;;;;;;13.07;57.34;98334.05;112512;1239;22106;-78
2023/03/14 11:52:54;;;;;;;12.70;8.80;;;;;;;13.08;57.27;98339.20;113026;1239;22703;-78
2023/03/14 11:55:34;;;;;;;9.80;8.70;;;;;;;13.18;57.19;98340.14;112693;1239;21945;-77
2023/03/14 11:58:37;;;;;;;15.80;11.20;;;;;;;13.26;57.12;98340.34;113550;1233;22995;-78
2023/03/14 12:01:14;;;;;;;11.90;9.80;;;;;;;13.34;56.95;98342.39;113668;1232;22224;-79
2023/03/14 12:04:25;;;;;;;21.40;9.70;;;;;;;13.40;56.86;98339.83;113475;1233;21954;-81
2023/03/14 12:07:22;;;;;;;16.70;11.20;;;;;;;13.52;56.88;98341.11;113036;1239;22435;-78
2023/03/14 12:10:03;;;;;;;21.10;13.70;;;;;;;13.74;56.91;98331.23;112782;1239;23050;-79
2023/03/14 12:12:49;;;;;;;8.80;7.20;;;;;;;13.99;56.71;98319.34;112902;1239;21961;-79
2023/03/14 12:15:49;;;;;;;10.90;9.60;;;;;;;14.22;55.80;98306.21;113006;1239;21953;-81
2023/03/14 12:18:46;;;;;;;11.30;8.40;;;;;;;14.31;55.47;98290.64;112780;1239;21947;-76